Time;durP1;ratioP1;P1;durP2;ratioP2;P2;SDS_P1;SDS_P2;PMS_P1;PMS_P2;Temp;Humidity;BMP_temperature;BMP_pressure;BME280_temperature;BME280_humidity;BME280_pressure;Samples;Min_cycle;Max_cycle;Signal;HPM_P1;HPM_P2
2021/04/06 00:00:34;;;;;;;6.67;2.87;;;;;;;6.07;59.80;101829.88;4137184;28;20450;-75
2021/04/06 00:02:38;;;;;;;4.72;2.70;;;;;;;6.25;59.13;101827.84;4137502;28;20436;-75
2021/04/06 00:04:43;;;;;;;5.72;3.28;;;;;;;6.25;58.63;101819.97;4137376;28;20034;-75
2021/04/06 00:06:48;;;;;;;6.50;3.30;;;;;;;6.27;58.79;101820.72;4137255;28;20034;-75
2021/04/06 00:08:50;;;;;;;5.35;3.00;;;;;;;6.13;59.48;101818.16;4137391;28;20034;-75
2021/04/06 00:10:57;;;;;;;8.93;3.25;;;;;;;6.17;57.29;101816.19;4137159;28;20033;-75
2021/04/06 00:13:00;;;;;;;5.03;3.22;;;;;;;6.04;57.11;101818.75;4137372;28;20042;-74
2021/04/06 00:15:03;;;;;;;6.47;2.97;;;;;;;6.02;57.55;101815.41;4137271;28;20030;-75
2021/04/06 00:17:09;;;;;;;5.45;3.25;;;;;;;6.00;58.18;101822.53;4137249;28;20089;-75
2021/04/06 00:19:11;;;;;;;4.60;3.13;;;;;;;5.91;57.39;101816.09;4137122;28;20026;-75
2021/04/06 00:21:13;;;;;;;8.02;2.75;;;;;;;5.85;58.71;101820.88;4137304;28;20080;-75
2021/04/06 00:23:16;;;;;;;9.70;3.85;;;;;;;5.94;57.17;101820.31;4136930;28;20033;-75
2021/04/06 00:25:23;;;;;;;4.25;2.70;;;;;;;5.91;57.76;101829.19;4137283;28;20034;-75
2021/04/06 00:27:33;;;;;;;6.53;3.30;;;;;;;5.84;57.41;101827.06;4136973;28;20027;-75
2021/04/06 00:29:37;;;;;;;5.13;3.03;;;;;;;5.80;57.67;101825.56;4137242;28;20509;-75
2021/04/06 00:31:41;;;;;;;6.00;2.83;;;;;;;5.97;57.35;101828.78;4137005;28;20025;-75
2021/04/06 00:33:45;;;;;;;6.90;3.00;;;;;;;5.90;57.69;101826.69;4151712;28;20129;-75
2021/04/06 00:35:58;;;;;;;7.10;3.05;;;;;;;5.93;57.21;101837.81;4136929;28;20512;-75
2021/04/06 00:38:04;;;;;;;5.50;2.45;;;;;;;5.86;57.39;101833.06;4136633;28;20516;-75
2021/04/06 00:40:10;;;;;;;4.82;2.70;;;;;;;5.86;57.54;101833.91;4137438;28;20575;-74
2021/04/06 00:42:17;;;;;;;4.18;3.20;;;;;;;5.81;57.85;101837.72;4152890;28;20109;-74
2021/04/06 00:44:19;;;;;;;8.48;3.22;;;;;;;5.85;57.25;101831.38;4168043;28;20148;-75
2021/04/06 00:46:27;;;;;;;6.15;3.25;;;;;;;5.81;57.98;101827.25;4152967;28;20038;-75
2021/04/06 00:48:31;;;;;;;5.35;3.35;;;;;;;5.87;57.83;101830.34;4137136;28;20513;-75
2021/04/06 00:50:35;;;;;;;4.30;2.80;;;;;;;5.79;57.68;101826.53;4136665;28;20023;-75
2021/04/06 00:52:46;;;;;;;8.40;3.78;;;;;;;5.78;58.11;101827.44;4136525;28;20038;-75
2021/04/06 00:54:52;;;;;;;6.15;3.08;;;;;;;5.43;59.19;101809.63;4136498;28;20030;-75
2021/04/06 00:56:58;;;;;;;7.22;2.75;;;;;;;5.21;59.89;101819.72;4136636;28;20040;-75
2021/04/06 00:59:03;;;;;;;6.18;2.85;;;;;;;5.31;59.89;101820.00;4136383;28;20042;-75
2021/04/06 01:01:05;;;;;;;4.80;3.03;;;;;;;5.27;60.50;101824.59;4136518;28;20053;-75
2021/04/06 01:03:11;;;;;;;3.05;2.40;;;;;;;5.26;60.14;101822.91;4136558;28;20490;-75
2021/04/06 01:05:12;;;;;;;4.40;2.53;;;;;;;5.21;60.28;101818.88;4136478;28;20031;-75
2021/04/06 01:07:16;;;;;;;6.13;2.90;;;;;;;5.30;60.57;101821.78;4136210;28;20038;-75
2021/04/06 01:09:18;;;;;;;7.03;3.60;;;;;;;5.18;61.31;101819.91;4136295;28;20038;-75
2021/04/06 01:11:22;;;;;;;5.47;3.10;;;;;;;5.18;61.27;101822.53;4135448;28;20773;-75
2021/04/06 01:13:24;;;;;;;9.50;3.30;;;;;;;5.14;60.80;101821.03;4134899;28;20042;-75
2021/04/06 01:15:27;;;;;;;4.70;2.55;;;;;;;5.10;61.07;101819.56;4134920;28;20101;-75
2021/04/06 01:17:34;;;;;;;4.57;2.92;;;;;;;5.03;61.46;101821.72;4136000;28;20041;-75
2021/04/06 01:19:36;;;;;;;4.28;2.65;;;;;;;5.06;61.93;101817.22;4135920;28;20037;-74
2021/04/06 01:21:37;;;;;;;5.68;3.63;;;;;;;5.26;60.93;101819.44;4135885;28;20026;-75
2021/04/06 01:23:39;;;;;;;6.65;3.40;;;;;;;5.23;60.77;101820.47;4135972;28;20030;-75
2021/04/06 01:25:48;;;;;;;6.28;3.30;;;;;;;5.08;61.77;101820.59;4135783;28;20045;-75
2021/04/06 01:27:55;;;;;;;6.55;3.20;;;;;;;5.02;61.67;101829.63;4136087;28;20030;-75
2021/04/06 01:29:57;;;;;;;6.22;2.75;;;;;;;5.05;61.59;101829.44;4135962;28;20034;-75
2021/04/06 01:32:00;;;;;;;4.38;2.97;;;;;;;5.02;61.75;101837.47;4135878;28;20105;-75
2021/04/06 01:34:03;;;;;;;4.85;2.90;;;;;;;4.96;62.02;101840.47;4139186;28;20038;-75
2021/04/06 01:36:08;;;;;;;3.47;2.75;;;;;;;4.99;61.85;101835.91;4152275;28;20371;-75
2021/04/06 01:38:10;;;;;;;6.75;2.80;;;;;;;5.09;61.67;101838.78;4151956;28;20049;-75
2021/04/06 01:40:12;;;;;;;5.00;3.10;;;;;;;5.01;62.24;101838.44;4150379;28;20034;-75
2021/04/06 01:42:14;;;;;;;5.88;3.13;;;;;;;4.86;62.13;101839.38;4135945;28;20034;-75
2021/04/06 01:44:17;;;;;;;4.50;2.92;;;;;;;4.66;63.56;101842.34;4135960;28;20066;-76
2021/04/06 01:46:29;;;;;;;5.13;3.17;;;;;;;4.65;63.66;101836.25;4144170;28;20030;-75
2021/04/06 01:48:33;;;;;;;5.25;3.30;;;;;;;4.66;63.26;101837.13;4139507;28;20053;-75
2021/04/06 01:50:34;;;;;;;4.57;3.00;;;;;;;4.64;63.49;101839.81;4152120;28;20129;-75
2021/04/06 01:52:35;;;;;;;4.18;3.10;;;;;;;4.63;64.08;101842.53;4151887;28;20034;-75
2021/04/06 01:54:39;;;;;;;6.75;3.20;;;;;;;4.56;63.91;101844.66;4151893;28;20040;-75
2021/04/06 01:56:51;;;;;;;6.97;3.67;;;;;;;4.48;63.84;101837.25;4152146;28;20511;-75
2021/04/06 01:58:58;;;;;;;5.20;3.20;;;;;;;4.43;64.52;101841.91;4152119;28;20042;-75
2021/04/06 02:01:13;;;;;;;6.18;3.35;;;;;;;4.42;64.57;101840.22;4151997;28;20068;-75
2021/04/06 02:03:15;;;;;;;4.72;2.88;;;;;;;4.30;65.99;101830.47;4151828;28;20049;-75
2021/04/06 02:05:17;;;;;;;6.10;3.33;;;;;;;4.33;65.81;101839.94;4152056;28;20026;-76
2021/04/06 02:07:25;;;;;;;6.10;4.05;;;;;;;4.11;66.37;101834.25;4151766;28;20044;-75
2021/04/06 02:09:27;;;;;;;5.63;3.28;;;;;;;3.97;67.06;101835.06;4151857;28;20436;-75
2021/04/06 02:11:31;;;;;;;7.63;3.45;;;;;;;3.82;67.77;101839.34;4151721;28;20083;-75
2021/04/06 02:13:32;;;;;;;6.45;3.03;;;;;;;3.93;67.19;101838.75;4152018;28;20449;-75
2021/04/06 02:15:34;;;;;;;7.00;2.78;;;;;;;3.86;67.44;101837.41;4151792;28;20038;-75
2021/04/06 02:17:48;;;;;;;5.03;3.13;;;;;;;3.93;67.88;101841.38;4151851;28;20030;-75
2021/04/06 02:19:49;;;;;;;5.22;3.20;;;;;;;3.86;67.72;101835.66;4151865;28;20112;-76
2021/04/06 02:21:53;;;;;;;10.50;4.07;;;;;;;3.81;67.97;101836.84;4151644;28;20033;-76
2021/04/06 02:23:54;;;;;;;6.78;3.30;;;;;;;3.63;68.18;101837.88;4154150;28;20485;-75
2021/04/06 02:25:56;;;;;;;7.07;3.22;;;;;;;3.58;68.82;101837.28;4155278;28;20479;-75
2021/04/06 02:27:58;;;;;;;6.88;3.83;;;;;;;3.64;69.00;101839.56;4155153;28;20033;-75
2021/04/06 02:30:01;;;;;;;9.05;3.55;;;;;;;3.50;69.68;101832.47;4155067;28;20030;-75
2021/04/06 02:32:09;;;;;;;4.60;3.65;;;;;;;3.58;69.17;101827.69;4154856;28;20029;-75
2021/04/06 02:34:10;;;;;;;3.70;3.25;;;;;;;3.63;69.25;101835.25;4154965;28;20049;-75
2021/04/06 02:36:12;;;;;;;7.13;3.80;;;;;;;3.59;68.92;101836.34;4154747;28;20445;-75
2021/04/06 02:38:14;;;;;;;5.45;4.00;;;;;;;3.54;68.89;101830.53;4154762;28;20053;-75
2021/04/06 02:40:20;;;;;;;8.13;3.78;;;;;;;3.39;69.48;101842.66;4152677;28;20492;-75
2021/04/06 02:42:24;;;;;;;5.97;3.75;;;;;;;3.36;68.96;101837.59;4138700;28;20035;-75
2021/04/06 02:44:26;;;;;;;6.88;3.85;;;;;;;3.37;69.32;101846.28;4138693;28;20540;-75
2021/04/06 02:46:29;;;;;;;8.73;4.03;;;;;;;3.39;68.95;101844.41;4148195;28;20041;-75
2021/04/06 02:48:30;;;;;;;4.25;3.40;;;;;;;3.30;69.28;101841.41;4138657;28;20030;-75
2021/04/06 02:50:33;;;;;;;6.38;3.70;;;;;;;3.26;69.48;101837.25;4138439;28;20042;-75
2021/04/06 02:52:36;;;;;;;5.55;3.28;;;;;;;3.31;69.62;101837.88;4138334;28;20039;-75
2021/04/06 02:54:37;;;;;;;4.10;3.40;;;;;;;3.30;69.41;101840.53;4138328;28;20405;-75
2021/04/06 02:56:39;;;;;;;4.50;3.17;;;;;;;3.22;69.77;101848.78;4138459;28;20408;-75
2021/04/06 02:58:40;;;;;;;6.07;3.00;;;;;;;3.32;70.25;101849.97;4137120;28;20038;-76
2021/04/06 03:00:42;;;;;;;5.15;3.28;;;;;;;3.19;71.62;101851.56;4138329;28;20401;-75
2021/04/06 03:02:43;;;;;;;6.07;3.63;;;;;;;3.11;71.42;101853.72;4138305;28;20417;-75
2021/04/06 03:04:45;;;;;;;9.25;4.20;;;;;;;3.08;70.91;101846.06;4138350;28;20073;-75
2021/04/06 03:06:50;;;;;;;6.65;4.10;;;;;;;3.02;70.40;101848.13;4138287;28;20026;-75
2021/04/06 03:08:59;;;;;;;6.03;3.50;;;;;;;2.92;71.24;101847.81;4138408;28;20062;-75
2021/04/06 03:11:01;;;;;;;6.05;3.28;;;;;;;2.95;70.47;101850.25;4138021;28;20461;-74
2021/04/06 03:13:14;;;;;;;5.32;3.85;;;;;;;2.90;70.96;101841.81;4138207;28;20045;-75
2021/04/06 03:15:27;;;;;;;11.45;4.03;;;;;;;3.02;70.94;101849.00;4138300;28;20050;-75
2021/04/06 03:17:49;;;;;;;6.70;3.53;;;;;;;3.03;71.56;101847.22;4152978;28;20046;-75
2021/04/06 03:19:58;;;;;;;7.10;4.05;;;;;;;2.97;71.96;101844.94;4138095;28;20030;-75
2021/04/06 03:22:00;;;;;;;6.85;3.40;;;;;;;3.00;71.74;101848.22;4137700;28;20027;-75
2021/04/06 03:24:02;;;;;;;6.18;3.55;;;;;;;2.95;71.30;101842.44;4138064;28;20506;-75
2021/04/06 03:26:06;;;;;;;8.13;3.75;;;;;;;2.94;71.31;101847.72;4138158;28;20026;-75
2021/04/06 03:28:09;;;;;;;7.85;4.25;;;;;;;3.07;70.11;101844.41;4138205;28;20077;-75
2021/04/06 03:30:12;;;;;;;5.00;3.17;;;;;;;2.99;71.24;101840.47;4137931;28;20038;-75
2021/04/06 03:32:13;;;;;;;6.07;3.38;;;;;;;2.93;71.20;101846.03;4137686;28;20272;-76
2021/04/06 03:34:15;;;;;;;8.27;3.50;;;;;;;2.92;70.72;101846.97;4137294;28;20034;-75
2021/04/06 03:36:24;;;;;;;4.10;3.20;;;;;;;2.81;70.71;101841.47;4137427;28;20033;-75
2021/04/06 03:38:26;;;;;;;8.48;4.43;;;;;;;2.73;72.03;101849.66;4137575;28;20046;-75
2021/04/06 03:40:32;;;;;;;8.52;3.92;;;;;;;2.83;71.32;101850.88;4141556;28;20037;-75
2021/04/06 03:42:33;;;;;;;4.25;3.72;;;;;;;2.77;71.72;101838.19;4153978;28;20034;-75
2021/04/06 03:44:35;;;;;;;7.20;3.65;;;;;;;2.61;72.55;101839.88;4153901;28;20102;-75
2021/04/06 03:46:38;;;;;;;4.28;3.78;;;;;;;2.72;72.32;101851.44;4153003;28;20036;-75
2021/04/06 03:48:39;;;;;;;8.13;4.05;;;;;;;2.72;71.85;101848.81;4137702;28;20034;-75
2021/04/06 03:50:41;;;;;;;10.00;4.68;;;;;;;2.73;72.45;101850.50;4137692;28;20038;-75
2021/04/06 03:53:03;;;;;;;7.00;3.67;;;;;;;2.68;71.38;101846.47;4137310;28;20036;-76
2021/04/06 03:55:10;;;;;;;6.35;4.00;;;;;;;2.64;71.43;101839.72;4141369;28;20034;-75
2021/04/06 03:57:23;;;;;;;5.40;3.80;;;;;;;2.70;71.63;101844.63;4153750;28;20029;-75
2021/04/06 03:59:28;;;;;;;7.03;3.58;;;;;;;2.65;72.46;101846.63;4153712;28;20409;-75
2021/04/06 04:01:30;;;;;;;5.57;4.10;;;;;;;2.73;71.80;101849.66;4153574;28;20029;-75
2021/04/06 04:03:32;;;;;;;7.00;4.05;;;;;;;2.70;71.21;101847.22;4153909;28;20060;-75
2021/04/06 04:05:33;;;;;;;5.43;3.70;;;;;;;2.50;71.65;101839.59;4168836;28;20030;-75
2021/04/06 04:07:36;;;;;;;5.53;4.40;;;;;;;2.51;71.63;101849.09;4153496;28;20041;-75
2021/04/06 04:09:37;;;;;;;4.60;3.50;;;;;;;2.44;72.05;101852.91;4153668;28;20037;-75
2021/04/06 04:11:40;;;;;;;7.85;3.78;;;;;;;2.38;72.68;101855.81;4153529;28;20030;-75
2021/04/06 04:13:41;;;;;;;8.90;4.20;;;;;;;2.33;73.04;101850.00;4153551;28;20041;-75
2021/04/06 04:15:42;;;;;;;4.18;3.42;;;;;;;2.37;72.49;101859.34;4153474;28;20489;-75
2021/04/06 04:17:50;;;;;;;7.05;3.80;;;;;;;2.45;72.34;101859.81;4153582;28;20026;-76
2021/04/06 04:19:52;;;;;;;8.63;4.20;;;;;;;2.26;72.30;101862.50;4148396;28;20038;-74
2021/04/06 04:21:53;;;;;;;9.25;4.32;;;;;;;2.40;72.15;101862.63;4153165;28;20491;-75
2021/04/06 04:23:54;;;;;;;8.77;3.85;;;;;;;2.41;72.64;101866.94;4153240;28;20060;-75
2021/04/06 04:25:56;;;;;;;8.38;4.07;;;;;;;2.51;72.32;101851.69;4153390;28;20036;-75
2021/04/06 04:27:57;;;;;;;9.07;4.10;;;;;;;2.46;72.18;101858.88;4153443;28;20033;-75
2021/04/06 04:29:58;;;;;;;5.38;3.90;;;;;;;2.45;72.64;101859.81;4153311;28;20041;-75
2021/04/06 04:31:59;;;;;;;6.75;4.13;;;;;;;2.38;71.82;101856.66;4153070;28;20566;-75
2021/04/06 04:34:01;;;;;;;6.85;4.35;;;;;;;2.41;72.30;101858.28;4153213;28;20037;-75
2021/04/06 04:36:02;;;;;;;4.70;3.72;;;;;;;2.32;72.89;101850.94;4153227;28;20409;-75
2021/04/06 04:38:08;;;;;;;5.95;3.55;;;;;;;2.42;72.67;101849.56;4153003;28;20053;-75
2021/04/06 04:40:10;;;;;;;10.45;4.18;;;;;;;2.40;72.29;101859.19;4151676;28;20533;-75
2021/04/06 04:42:11;;;;;;;8.20;4.40;;;;;;;2.14;72.76;101856.13;4153129;28;20030;-75
2021/04/06 04:44:13;;;;;;;8.32;4.90;;;;;;;2.22;72.89;101859.19;4153020;28;20439;-75
2021/04/06 04:46:14;;;;;;;5.38;3.75;;;;;;;2.25;73.04;101858.19;4152851;28;20029;-75
2021/04/06 04:48:15;;;;;;;8.30;4.05;;;;;;;2.32;72.28;101863.94;4151526;28;20034;-75
2021/04/06 04:50:18;;;;;;;6.57;4.13;;;;;;;2.27;72.11;101858.13;4148254;28;20038;-75
2021/04/06 04:52:19;;;;;;;7.35;4.03;;;;;;;2.44;71.97;101860.72;4136511;28;20405;-75
2021/04/06 04:54:20;;;;;;;9.95;4.78;;;;;;;2.31;72.26;101864.84;4135373;28;20061;-75
2021/04/06 04:56:21;;;;;;;6.05;3.30;;;;;;;2.05;72.73;101866.97;4136711;28;20045;-75
2021/04/06 04:58:23;;;;;;;7.32;4.40;;;;;;;2.00;73.96;101868.13;4136569;28;20497;-75
2021/04/06 05:00:24;;;;;;;6.15;3.58;;;;;;;2.01;74.11;101873.25;4136530;28;20105;-75
2021/04/06 05:02:26;;;;;;;7.18;3.67;;;;;;;2.05;74.10;101876.53;4136487;28;20018;-75
2021/04/06 05:04:27;;;;;;;4.78;3.53;;;;;;;2.14;74.14;101878.72;4136319;28;20073;-75
2021/04/06 05:06:28;;;;;;;10.35;4.32;;;;;;;2.22;73.90;101886.97;4136223;28;20033;-75
2021/04/06 05:08:29;;;;;;;9.55;4.30;;;;;;;1.96;73.57;101877.84;4151392;28;20030;-75
2021/04/06 05:10:31;;;;;;;3.90;3.50;;;;;;;1.96;74.18;101867.44;4136230;28;20031;-75
2021/04/06 05:12:32;;;;;;;7.57;3.92;;;;;;;1.98;74.65;101881.19;4136222;28;20378;-75
2021/04/06 05:14:33;;;;;;;5.45;3.58;;;;;;;2.04;74.42;101880.91;4136158;28;20034;-75
2021/04/06 05:16:35;;;;;;;7.15;4.05;;;;;;;2.01;74.57;101881.03;4136407;28;20030;-75
2021/04/06 05:18:36;;;;;;;6.93;3.85;;;;;;;2.20;73.04;101879.25;4136251;28;20401;-75
2021/04/06 05:20:37;;;;;;;7.18;3.55;;;;;;;2.21;73.40;101883.53;4136027;28;20030;-75
2021/04/06 05:22:39;;;;;;;6.75;4.07;;;;;;;2.10;73.29;101885.81;4135933;28;20080;-75
2021/04/06 05:24:40;;;;;;;4.20;3.55;;;;;;;1.96;73.06;101890.84;4135987;28;20030;-75
2021/04/06 05:26:41;;;;;;;9.27;4.25;;;;;;;1.96;73.96;101898.66;4136003;28;20038;-75
2021/04/06 05:28:42;;;;;;;7.80;5.05;;;;;;;2.08;73.61;101900.66;4135937;28;20081;-75
2021/04/06 05:30:43;;;;;;;7.35;4.50;;;;;;;2.09;72.34;101902.34;4135911;28;20062;-75
2021/04/06 05:32:45;;;;;;;9.75;4.63;;;;;;;2.08;72.56;101905.03;4136023;28;20057;-75
2021/04/06 05:34:46;;;;;;;5.07;3.72;;;;;;;1.97;73.66;101908.13;4136054;28;20144;-75
2021/04/06 05:36:47;;;;;;;7.25;4.32;;;;;;;2.16;71.93;101906.34;4134449;28;20077;-75
2021/04/06 05:38:49;;;;;;;6.63;4.30;;;;;;;2.29;70.92;101906.59;4135730;28;20072;-75
2021/04/06 05:40:51;;;;;;;8.52;4.50;;;;;;;2.35;71.10;101901.09;4142917;28;20050;-75
2021/04/06 05:42:52;;;;;;;5.03;4.10;;;;;;;2.39;70.70;101900.00;4152182;28;20041;-75
2021/04/06 05:44:54;;;;;;;6.25;4.00;;;;;;;2.56;69.10;101901.78;4151941;28;20076;-75
2021/04/06 05:47:00;;;;;;;8.77;4.00;;;;;;;2.50;67.92;101899.47;4147830;28;20061;-75
2021/04/06 05:49:06;;;;;;;7.32;4.07;;;;;;;2.70;68.10;101900.16;4135857;28;20524;-75
2021/04/06 05:51:07;;;;;;;6.40;3.38;;;;;;;2.55;69.36;101897.47;4135591;28;20037;-75
2021/04/06 05:53:08;;;;;;;8.48;4.10;;;;;;;2.55;69.03;101900.09;4135734;28;20400;-75
2021/04/06 05:55:10;;;;;;;5.18;3.55;;;;;;;2.57;69.78;101906.09;4135726;28;20045;-75
2021/04/06 05:57:12;;;;;;;8.93;4.03;;;;;;;2.70;69.07;101904.53;4135730;28;20101;-75
2021/04/06 05:59:13;;;;;;;3.97;3.28;;;;;;;2.72;69.25;101903.53;4135468;28;20442;-75
2021/04/06 06:01:15;;;;;;;6.05;4.07;;;;;;;2.63;69.94;101900.53;4135606;28;20027;-75
2021/04/06 06:03:17;;;;;;;6.68;4.00;;;;;;;2.47;70.40;101912.66;4135672;28;20125;-75
2021/04/06 06:05:18;;;;;;;9.30;4.45;;;;;;;2.31;70.84;101909.09;4135636;28;20038;-75
2021/04/06 06:07:19;;;;;;;5.78;3.92;;;;;;;2.35;71.76;101914.09;4135396;28;20034;-75
2021/04/06 06:09:32;;;;;;;5.90;3.78;;;;;;;2.30;71.15;101912.66;4135538;28;20030;-75
2021/04/06 06:11:33;;;;;;;8.20;4.15;;;;;;;2.41;71.35;101912.97;4135503;28;20034;-75
2021/04/06 06:13:37;;;;;;;5.93;3.85;;;;;;;2.41;71.27;101905.16;4135664;28;20449;-75
2021/04/06 06:15:38;;;;;;;7.20;4.18;;;;;;;2.33;71.49;101915.91;4135661;28;20038;-75
2021/04/06 06:17:40;;;;;;;8.82;4.00;;;;;;;2.30;70.59;101912.66;4135817;28;20468;-75
2021/04/06 06:19:42;;;;;;;6.20;4.32;;;;;;;2.34;70.39;101916.75;4135747;28;20096;-75
2021/04/06 06:21:50;;;;;;;8.52;3.90;;;;;;;2.52;71.63;101919.31;4135453;28;20027;-75
2021/04/06 06:23:52;;;;;;;7.75;4.20;;;;;;;2.53;71.40;101925.38;4135471;28;20038;-75
2021/04/06 06:26:11;;;;;;;9.45;3.47;;;;;;;2.43;70.39;101929.34;4135605;28;20433;-75
2021/04/06 06:28:12;;;;;;;5.57;3.70;;;;;;;2.52;70.61;101927.13;4135489;28;20093;-75
2021/04/06 06:30:37;;;;;;;4.95;3.90;;;;;;;2.48;70.92;101932.59;4135360;28;20026;-75
2021/04/06 06:32:38;;;;;;;5.97;3.35;;;;;;;2.60;71.60;101929.34;4156547;28;20354;-75
2021/04/06 06:34:39;;;;;;;7.13;3.55;;;;;;;2.78;70.18;101931.03;4151400;28;20038;-75
2021/04/06 06:36:41;;;;;;;9.07;3.70;;;;;;;2.93;69.62;101935.47;4151469;28;20104;-76
2021/04/06 06:38:43;;;;;;;7.20;3.92;;;;;;;3.02;70.33;101932.41;4151256;28;20042;-74
2021/04/06 06:40:45;;;;;;;6.03;3.75;;;;;;;3.19;68.61;101928.94;4144190;28;20117;-75
2021/04/06 06:42:47;;;;;;;9.25;3.95;;;;;;;3.35;67.58;101941.06;4135287;28;20042;-75
2021/04/06 06:44:48;;;;;;;8.27;4.10;;;;;;;3.55;67.62;101934.81;4135215;28;20030;-75
2021/04/06 06:47:03;;;;;;;8.68;4.20;;;;;;;3.89;65.85;101941.66;4145236;28;20044;-75
2021/04/06 06:49:07;;;;;;;5.70;4.00;;;;;;;4.14;66.98;101943.75;4148540;28;20037;-76
2021/04/06 06:51:11;;;;;;;7.45;3.92;;;;;;;4.25;65.37;101937.00;4150844;28;20058;-75
2021/04/06 06:53:12;;;;;;;7.13;4.38;;;;;;;4.57;62.78;101942.19;4148560;28;20452;-75
2021/04/06 06:55:19;;;;;;;10.00;4.10;;;;;;;4.88;61.50;101942.06;4151194;28;20041;-76
2021/04/06 06:57:28;;;;;;;8.13;4.13;;;;;;;4.90;62.02;101940.19;4151328;28;20030;-76
2021/04/06 06:59:36;;;;;;;7.03;3.83;;;;;;;5.19;60.90;101941.94;4151140;28;20045;-76
2021/04/06 07:01:38;;;;;;;6.85;3.47;;;;;;;5.36;60.06;101946.13;4151455;28;20025;-76
2021/04/06 07:03:39;;;;;;;7.30;4.50;;;;;;;5.44;60.94;101942.09;4151449;28;20041;-77
2021/04/06 07:05:40;;;;;;;8.20;3.92;;;;;;;5.62;60.99;101945.38;4151428;28;20041;-76
2021/04/06 07:08:04;;;;;;;7.57;4.15;;;;;;;5.77;59.60;101936.56;4151245;28;20049;-76
2021/04/06 07:10:06;;;;;;;7.60;3.70;;;;;;;5.86;59.59;101935.19;4151201;28;20038;-73
2021/04/06 07:12:09;;;;;;;7.63;3.40;;;;;;;5.98;59.22;101943.09;4146187;28;20040;-73
2021/04/06 07:14:11;;;;;;;4.32;3.28;;;;;;;6.05;59.46;101943.56;4137950;28;20114;-73
2021/04/06 07:16:15;;;;;;;6.25;3.15;;;;;;;6.05;57.99;101939.16;4149753;28;20037;-72
2021/04/06 07:18:18;;;;;;;;;;;;;;;6.17;57.75;101947.16;4138067;28;20034;-73
2021/04/06 07:20:22;;;;;;;6.40;3.60;;;;;;;6.05;57.49;101952.25;4137622;28;19949;-73
2021/04/06 07:22:24;;;;;;;5.78;3.65;;;;;;;6.13;58.23;101949.97;4141539;28;20228;-72
2021/04/06 07:24:36;;;;;;;7.13;4.22;;;;;;;6.29;57.28;101941.16;4150032;28;20065;-73
2021/04/06 07:26:39;;;;;;;5.40;2.97;;;;;;;6.37;56.94;101944.94;4149546;28;20516;-73
2021/04/06 07:28:41;;;;;;;6.10;2.78;;;;;;;6.58;55.75;101935.69;4144187;28;20627;-74
2021/04/06 07:30:44;;;;;;;6.43;3.22;;;;;;;6.62;56.52;101947.66;4137416;28;21985;-74
2021/04/06 07:32:47;;;;;;;5.05;3.60;;;;;;;6.60;57.40;101941.66;4137444;28;20041;-74
2021/04/06 07:34:48;;;;;;;4.15;3.22;;;;;;;6.82;55.16;101937.59;4137276;28;20037;-74
2021/04/06 07:36:51;;;;;;;6.18;3.15;;;;;;;6.92;54.91;101952.63;4137088;28;20034;-75
2021/04/06 07:38:59;;;;;;;3.47;2.75;;;;;;;6.65;52.38;101950.06;4137134;28;20454;-74
2021/04/06 07:41:00;;;;;;;7.63;3.13;;;;;;;6.55;52.61;101949.00;4145634;28;20040;-74
2021/04/06 07:43:05;;;;;;;5.93;3.00;;;;;;;6.55;52.28;101949.00;4153475;28;20034;-74
2021/04/06 07:45:23;;;;;;;6.90;2.90;;;;;;;6.67;51.91;101948.19;4153110;28;20037;-74
2021/04/06 07:47:37;;;;;;;4.90;3.05;;;;;;;6.59;52.44;101950.47;4137360;28;20413;-75
2021/04/06 07:49:39;;;;;;;8.55;3.30;;;;;;;6.78;52.68;101959.75;4142944;28;20030;-75
2021/04/06 07:51:46;;;;;;;4.75;2.85;;;;;;;6.30;52.82;101951.50;4149851;28;20121;-75
2021/04/06 07:54:06;;;;;;;5.20;3.42;;;;;;;6.31;53.40;101934.00;4137471;28;20049;-76
2021/04/06 07:56:08;;;;;;;5.95;3.00;;;;;;;6.65;52.54;101944.81;4137397;28;20398;-74
2021/04/06 07:58:09;;;;;;;7.40;3.00;;;;;;;6.78;51.39;101952.69;4137083;28;20041;-74
2021/04/06 08:00:12;;;;;;;5.30;2.85;;;;;;;6.83;52.79;101934.06;4135702;28;20547;-74
2021/04/06 08:02:13;;;;;;;7.72;2.83;;;;;;;6.86;51.95;101942.56;4137495;28;20034;-74
2021/04/06 08:04:14;;;;;;;3.78;2.38;;;;;;;7.07;51.64;101942.88;4137389;28;20072;-74
2021/04/06 08:06:39;;;;;;;7.85;2.60;;;;;;;6.96;52.38;101934.91;4137067;28;20038;-74
2021/04/06 08:08:40;;;;;;;4.53;2.33;;;;;;;7.31;51.40;101943.84;4137479;28;20033;-74
2021/04/06 08:10:47;;;;;;;12.52;3.15;;;;;;;7.46;52.02;101947.19;4137116;28;20394;-75
2021/04/06 08:12:49;;;;;;;6.60;2.90;;;;;;;7.56;51.47;101951.69;4137215;28;20105;-74
2021/04/06 08:15:01;;;;;;;11.02;3.97;;;;;;;7.20;50.90;101951.59;4137307;28;20026;-74
2021/04/06 08:17:27;;;;;;;8.23;3.80;;;;;;;7.17;51.29;101944.78;4137257;28;20092;-75
2021/04/06 08:19:32;;;;;;;7.18;3.17;;;;;;;6.63;52.32;101946.69;4142190;28;20081;-74
2021/04/06 08:21:33;;;;;;;4.13;3.17;;;;;;;6.89;52.25;101942.34;4152995;28;20026;-75
2021/04/06 08:23:44;;;;;;;6.22;3.22;;;;;;;6.87;53.44;101946.84;4153141;28;20025;-75
2021/04/06 08:25:47;;;;;;;5.22;3.17;;;;;;;7.15;51.87;101948.44;4152965;28;20141;-74
2021/04/06 08:27:50;;;;;;;9.63;4.13;;;;;;;7.05;52.19;101950.00;4153357;28;20404;-74
2021/04/06 08:30:26;;;;;;;7.65;3.45;;;;;;;6.95;52.39;101941.09;4153014;28;20040;-74
2021/04/06 08:32:27;;;;;;;5.57;3.17;;;;;;;6.90;52.94;101932.72;4153051;28;20068;-74
2021/04/06 08:34:30;;;;;;;4.38;2.78;;;;;;;6.92;53.62;101930.81;4153088;28;20053;-75
2021/04/06 08:36:31;;;;;;;4.68;3.20;;;;;;;6.78;54.78;101930.91;4152653;28;20033;-74
2021/04/06 08:38:32;;;;;;;7.30;3.72;;;;;;;6.88;53.79;101937.19;4152759;28;20041;-74
2021/04/06 08:40:46;;;;;;;6.60;3.58;;;;;;;7.22;53.53;101939.22;4148448;28;20117;-74
2021/04/06 08:42:48;;;;;;;6.32;3.38;;;;;;;7.39;52.78;101938.88;4151597;28;20042;-74
2021/04/06 08:44:59;;;;;;;5.93;3.50;;;;;;;7.64;52.69;101943.28;4136858;28;20027;-74
2021/04/06 08:47:00;;;;;;;7.80;3.63;;;;;;;7.55;52.99;101936.88;4146558;28;20138;-74
2021/04/06 08:49:09;;;;;;;6.05;3.70;;;;;;;8.01;51.73;101946.75;4136676;28;20053;-75
2021/04/06 08:51:20;;;;;;;5.95;3.05;;;;;;;8.05;50.20;101942.94;4136347;28;20041;-75
2021/04/06 08:53:21;;;;;;;4.38;3.40;;;;;;;7.96;50.29;101944.47;4136567;28;20041;-74
2021/04/06 08:55:26;;;;;;;8.65;2.95;;;;;;;8.32;50.04;101948.88;4136755;28;20034;-75
2021/04/06 08:57:27;;;;;;;7.93;3.75;;;;;;;8.53;50.07;101949.94;4136670;28;20065;-74
2021/04/06 08:59:34;;;;;;;7.97;3.35;;;;;;;8.11;49.76;101943.34;4136479;28;20114;-74
2021/04/06 09:01:35;;;;;;;4.03;2.65;;;;;;;8.46;49.05;101940.81;4140571;28;20507;-75
2021/04/06 09:03:37;;;;;;;6.47;2.08;;;;;;;8.46;46.11;101948.69;4152744;28;20026;-74
2021/04/06 09:05:38;;;;;;;5.75;2.17;;;;;;;8.46;44.96;101946.06;4167595;28;20029;-74
2021/04/06 09:07:40;;;;;;;4.30;2.50;;;;;;;8.35;44.83;101953.91;4152202;28;20038;-74
2021/04/06 09:09:41;;;;;;;5.43;2.88;;;;;;;8.35;46.49;101956.53;4152546;28;20033;-74
2021/04/06 09:11:42;;;;;;;7.70;3.10;;;;;;;8.63;46.97;101947.47;4152259;28;20030;-74
2021/04/06 09:13:44;;;;;;;7.15;3.35;;;;;;;8.67;47.30;101936.59;4152412;28;20392;-74
2021/04/06 09:15:48;;;;;;;4.07;2.90;;;;;;;8.80;48.22;101936.50;4152456;28;20498;-74
2021/04/06 09:17:49;;;;;;;;;;;;;;;8.57;47.33;101943.47;4152896;28;20120;-74
2021/04/06 09:19:51;;;;;;;5.82;3.10;;;;;;;8.50;47.49;101942.25;4152350;28;19948;-74
2021/04/06 09:21:58;;;;;;;5.95;2.63;;;;;;;8.77;45.94;101940.22;4152235;28;20086;-74
2021/04/06 09:24:04;;;;;;;9.50;3.15;;;;;;;7.95;47.54;101941.91;4152102;28;20053;-74
2021/04/06 09:26:12;;;;;;;4.60;2.47;;;;;;;7.80;46.97;101952.59;4152208;28;20034;-74
2021/04/06 09:28:14;;;;;;;5.53;2.30;;;;;;;8.34;46.14;101946.97;4152157;28;20022;-74
2021/04/06 09:30:16;;;;;;;8.18;2.50;;;;;;;8.47;47.23;101947.75;4152172;28;20030;-74
2021/04/06 09:32:19;;;;;;;6.55;2.78;;;;;;;7.91;46.39;101943.97;4151607;28;20025;-74
2021/04/06 09:34:24;;;;;;;9.80;2.85;;;;;;;8.25;48.64;101945.81;4152266;28;20037;-74
2021/04/06 09:36:25;;;;;;;4.53;2.35;;;;;;;8.29;46.54;101941.22;4152037;28;20095;-74
2021/04/06 09:38:27;;;;;;;3.88;1.92;;;;;;;8.45;47.20;101943.56;4151987;28;20049;-74
2021/04/06 09:40:30;;;;;;;4.25;2.13;;;;;;;8.06;45.25;101950.75;4148416;28;20121;-75
2021/04/06 09:42:32;;;;;;;5.28;2.38;;;;;;;7.85;45.38;101939.13;4136212;28;20409;-75
2021/04/06 09:44:39;;;;;;;8.52;2.33;;;;;;;7.74;45.61;101942.50;4135893;28;20080;-74